Saturday, November 01, 2014
03:21 UTC
  |  Log In   |  Register Free
Airport Search:

Farmington Regional Airport
(KFAM)

Farmington Regional Airport Diagram
No Airport Diagram Available

FAA data valid effective September 18, 2014 - November 13, 2014 (unless otherwise noted).

 
 
 
 
 
 
 
 
 
 
 
 
 
 

Current Aviation Weather for Farmington Regional Airport (KFAM)

The most recent METAR observation for KFAM was updated at: 0220
METAR Summary (Translated METAR)
KFAM
010155Z AUTO 31005KT 10SM CLR 03/M08 A3035 RMK AO1
KSAR
010215Z AUTO 33009KT 10SM CLR 04/M05 A3034 RMK AO2 T00361054
(41.7 nm NE from KFAM)
KSAR
010215Z AUTO 33009KT 10SM CLR 04/M05 A3034 RMK AO2 T00361054
(41.7 nm NE from KFAM)
TAF
No TAF information found within 50 nm of KFAM
  Airport Weather Conditions for KFAM

 Current Weather at FAM
36° F
Fair
Northwest winds at 5.8 mph
FAM NOAA Radar

Pressure: 30.35 in
Humidity: 52%
Wind: Northwest at 5.8 MPH (5 KT)
Dew Point: 19.4°F
Visibility: 10.00 mi


Airport Weather Forecast for KFAM

Translated METAR and TAF for KFAM
Translated METAR for KFAM (0316 UTC 01 November 2014)
found at http://aviationweather.gov/adds/metars/
 
METAR text: KFAM 010255Z AUTO 31005KT 10SM CLR 02/M07 A3035 RMK AO1 52007
Conditions at: KFAM (FARMINGTON , MO, US) observed 0255 UTC 01 November 2014
Temperature: 2.0°C (36°F)
Dewpoint: -7.0°C (19°F) [RH = 51%]
Pressure (altimeter): 30.35 inches Hg (1027.9 mb)
Winds: from the NW (310 degrees) at 6 MPH (5 knots; 2.6 m/s)
Visibility: 10 or more miles (16+ km)
Ceiling: at least 12,000 feet AGL
Clouds: sky clear below 12,000 feet AGL
Weather: automated observation with no human augmentation;
there may or may not be significant weather present at this time
Translated TAF for KFAM

There is no translated TAF available for this airport

Find All Airport Services Find A Hotel Find A Rental Car Find A Golf Course Find A Restaurant $100 Hamburger



FBO's on the Field
FBO Company Facility Photos Services Transportation Aviation Fuel Prices: Prices include tax
Catering Weather Repair Courtesy Rental Type 100LL JetA JetA+ MOGAS 8087
 
Farmington Regional Airport

This FBO has not yet been rated
FS:Shell
Last Updated: Oct-28
Login to update fuel prices
SS:
Contact Farmington Regional AirportMore FBO Information
 
Add another FBO Facility Photos Catering Weather Repair Courtesy Rental Type 100LL JetA JetA+ MOGAS 8087
Services Transportation Aviation Fuel Prices: Prices include tax


model-print
model-print
model-print
model-print